createdAt,value
2022-09-23T00:01:58.066Z,16.10
2022-09-23T00:04:00.593Z,12.13
2022-09-23T00:06:05.533Z,14.23
2022-09-23T00:08:08.969Z,13.73
2022-09-23T00:10:11.251Z,13.75
2022-09-23T00:12:12.997Z,14.90
2022-09-23T00:14:15.134Z,12.18
2022-09-23T00:16:26.177Z,11.68
2022-09-23T00:18:27.885Z,11.15
2022-09-23T00:20:29.851Z,9.93
2022-09-23T00:22:31.778Z,9.38
2022-09-23T00:24:33.615Z,8.70
2022-09-23T00:26:35.593Z,13.43
2022-09-23T00:28:37.631Z,11.25
2022-09-23T00:30:41.125Z,12.35
2022-09-23T00:32:43.059Z,12.85
2022-09-23T00:34:44.966Z,11.45
2022-09-23T00:36:46.661Z,13.27
2022-09-23T00:38:48.671Z,11.75
2022-09-23T00:40:50.543Z,10.93
2022-09-23T00:42:52.321Z,10.57
2022-09-23T00:44:59.830Z,11.00
2022-09-23T00:47:01.688Z,9.98
2022-09-23T00:49:11.095Z,9.95
2022-09-23T00:51:19.889Z,10.32
2022-09-23T00:53:25.346Z,9.77
2022-09-23T00:55:30.678Z,10.88
2022-09-23T00:57:33.083Z,13.30
2022-09-23T00:59:35.812Z,12.52
2022-09-23T01:01:39.017Z,10.55
2022-09-23T01:03:44.673Z,12.25
2022-09-23T01:05:47.117Z,11.57
2022-09-23T01:07:50.253Z,12.07
2022-09-23T01:09:52.100Z,14.93
2022-09-23T01:12:00.281Z,12.55
2022-09-23T01:14:23.334Z,12.70
2022-09-23T01:16:54.958Z,14.18
2022-09-23T01:19:15.466Z,12.02
2022-09-23T01:21:46.588Z,12.27
2022-09-23T01:24:16.408Z,16.80
2022-09-23T01:26:36.736Z,12.40
2022-09-23T01:29:16.994Z,13.45
2022-09-23T01:31:32.254Z,15.40
2022-09-23T01:33:50.471Z,13.88
2022-09-23T01:36:23.428Z,13.82
2022-09-23T01:38:50.258Z,12.10
2022-09-23T01:41:13.235Z,21.45
2022-09-23T01:43:28.071Z,16.73
2022-09-23T01:45:39.585Z,16.08
2022-09-23T01:48:06.265Z,20.27
2022-09-23T01:50:18.438Z,16.48
2022-09-23T01:52:31.747Z,20.45
2022-09-23T01:54:42.360Z,17.88
2022-09-23T01:56:52.923Z,19.98
2022-09-23T01:59:08.886Z,14.07
2022-09-23T02:01:17.460Z,15.98
2022-09-23T02:03:28.755Z,17.73
2022-09-23T02:05:47.333Z,17.42
2022-09-23T02:07:57.392Z,14.00
2022-09-23T02:10:19.134Z,14.65
2022-09-23T02:12:25.190Z,15.77
2022-09-23T02:14:36.600Z,13.90
2022-09-23T02:16:44.960Z,13.32
2022-09-23T02:18:53.475Z,76.40
2022-09-23T02:21:02.825Z,67.18
2022-09-23T02:23:25.545Z,152.77
2022-09-23T02:25:40.045Z,128.85
2022-09-23T02:28:04.547Z,51.22
2022-09-23T02:32:43.759Z,128.43
2022-09-23T02:35:17.632Z,103.35
2022-09-23T02:37:44.753Z,127.30
2022-09-23T02:40:28.038Z,127.57
2022-09-23T02:43:02.033Z,90.35
2022-09-23T02:45:03.913Z,98.77
2022-09-23T02:47:05.736Z,106.47
2022-09-23T02:49:26.996Z,95.32
2022-09-23T02:51:28.874Z,60.17
2022-09-23T02:53:32.320Z,104.70
2022-09-23T02:55:34.286Z,74.20
2022-09-23T02:57:36.039Z,85.60
2022-09-23T02:59:38.898Z,50.13
2022-09-23T03:02:02.042Z,53.43
2022-09-23T03:04:44.972Z,62.90
2022-09-23T03:06:59.282Z,87.85
2022-09-23T03:09:17.495Z,62.13
2022-09-23T03:11:20.104Z,49.15
2022-09-23T03:13:46.466Z,46.10
2022-09-23T03:16:00.876Z,51.90
2022-09-23T03:18:31.001Z,55.10
2022-09-23T03:20:44.284Z,68.75
2022-09-23T03:23:00.349Z,29.48
2022-09-23T03:25:09.173Z,50.25
2022-09-23T03:27:15.995Z,63.08
2022-09-23T03:29:20.060Z,50.42
2022-09-23T03:31:21.885Z,43.05
2022-09-23T03:33:28.674Z,68.97
2022-09-23T03:35:44.536Z,100.53
2022-09-23T03:38:04.134Z,87.50
2022-09-23T03:40:24.199Z,73.47
2022-09-23T03:42:30.848Z,91.38
2022-09-23T03:44:35.674Z,83.00
2022-09-23T03:46:37.542Z,80.07
2022-09-23T03:48:39.494Z,70.80
2022-09-23T03:50:41.233Z,55.30
2022-09-23T03:52:43.960Z,83.45
2022-09-23T03:54:46.487Z,79.32
2022-09-23T03:56:48.502Z,57.50
2022-09-23T03:58:50.187Z,83.63
2022-09-23T04:00:52.047Z,83.68
2022-09-23T04:02:53.760Z,77.72
2022-09-23T04:04:55.467Z,46.45
2022-09-23T04:06:57.470Z,62.85
2022-09-23T04:08:59.180Z,56.85
2022-09-23T04:11:02.293Z,52.60
2022-09-23T04:13:04.017Z,61.03
2022-09-23T04:15:06.379Z,37.97
2022-09-23T04:17:08.099Z,73.57
2022-09-23T04:19:13.971Z,86.45
2022-09-23T04:21:16.195Z,92.15
2022-09-23T04:23:17.907Z,71.60
2022-09-23T04:25:19.662Z,78.85
2022-09-23T04:27:21.402Z,116.18
2022-09-23T04:29:24.198Z,127.72
2022-09-23T04:31:26.523Z,64.30
2022-09-23T04:33:28.304Z,47.25
2022-09-23T04:35:30.027Z,76.75
2022-09-23T04:37:31.799Z,103.35
2022-09-23T04:39:33.514Z,85.57
2022-09-23T04:41:35.237Z,89.32
2022-09-23T04:43:37.070Z,116.22
2022-09-23T04:45:38.882Z,93.43
2022-09-23T04:47:40.618Z,103.70
2022-09-23T04:49:42.522Z,120.03
2022-09-23T04:51:44.245Z,118.38
2022-09-23T04:53:47.841Z,105.57
2022-09-23T04:55:49.562Z,109.25
2022-09-23T04:57:51.245Z,89.55
2022-09-23T04:59:52.955Z,105.38
2022-09-23T05:01:55.042Z,105.38
2022-09-23T05:04:01.801Z,112.20
2022-09-23T05:06:03.815Z,111.35
2022-09-23T05:08:05.547Z,110.82
2022-09-23T05:10:07.948Z,144.43
2022-09-23T05:12:09.790Z,134.23
2022-09-23T05:14:11.689Z,165.80
2022-09-23T05:16:13.507Z,180.48
2022-09-23T05:18:17.902Z,154.88
2022-09-23T05:20:22.538Z,189.40
2022-09-23T05:22:24.907Z,155.07
2022-09-23T05:24:26.621Z,200.55
2022-09-23T05:26:31.266Z,161.90
2022-09-23T05:28:34.205Z,109.90
2022-09-23T05:30:35.951Z,160.60
2022-09-23T05:32:37.981Z,210.25
2022-09-23T05:34:39.722Z,169.98
2022-09-23T05:36:41.608Z,195.02
2022-09-23T05:38:43.817Z,155.15
2022-09-23T05:40:45.533Z,143.00
2022-09-23T05:42:47.374Z,168.70
2022-09-23T05:44:49.150Z,178.52
2022-09-23T05:46:50.908Z,118.82
2022-09-23T05:48:52.895Z,148.77
2022-09-23T05:50:54.815Z,134.15
2022-09-23T05:52:56.529Z,95.38
2022-09-23T05:54:58.452Z,171.27
2022-09-23T05:57:02.739Z,87.28
2022-09-23T05:59:06.850Z,146.52
2022-09-23T06:01:13.775Z,93.80
2022-09-23T06:03:18.071Z,167.43
2022-09-23T06:05:19.872Z,91.63
2022-09-23T06:07:21.740Z,104.18
2022-09-23T06:09:23.497Z,103.85
2022-09-23T06:11:25.403Z,80.82
2022-09-23T06:13:27.154Z,54.58
2022-09-23T06:15:28.854Z,42.00
2022-09-23T06:17:30.603Z,68.40
2022-09-23T06:19:32.509Z,56.25
2022-09-23T06:21:39.006Z,31.23
2022-09-23T06:23:42.131Z,27.42
2022-09-23T06:25:44.097Z,33.72
2022-09-23T06:27:56.008Z,23.20
2022-09-23T06:29:57.711Z,24.38
2022-09-23T06:31:59.863Z,29.15
2022-09-23T06:34:11.094Z,21.10
2022-09-23T06:36:23.035Z,23.38
2022-09-23T06:38:33.404Z,24.88
2022-09-23T06:40:35.323Z,25.67
2022-09-23T06:42:37.114Z,22.10
2022-09-23T06:44:38.927Z,26.48
2022-09-23T06:46:41.006Z,20.75
2022-09-23T06:48:46.162Z,22.15
2022-09-23T06:50:48.374Z,23.05
2022-09-23T06:52:57.102Z,20.50
2022-09-23T06:54:58.904Z,18.23
2022-09-23T06:57:00.827Z,18.98
2022-09-23T06:59:02.627Z,18.08
2022-09-23T07:01:06.642Z,18.70
2022-09-23T07:03:08.692Z,21.30
2022-09-23T07:05:10.542Z,18.38
2022-09-23T07:07:12.223Z,17.88
2022-09-23T07:09:14.156Z,17.20
2022-09-23T07:11:16.511Z,21.85
2022-09-23T07:13:18.184Z,18.92
2022-09-23T07:15:19.972Z,19.02
2022-09-23T07:17:21.723Z,19.77
2022-09-23T07:19:23.510Z,19.15
2022-09-23T07:21:25.341Z,22.95
2022-09-23T07:23:27.320Z,21.77
2022-09-23T07:25:28.991Z,22.35
2022-09-23T07:27:30.734Z,20.05
2022-09-23T07:29:43.254Z,19.58
2022-09-23T07:31:49.106Z,21.20
2022-09-23T07:33:57.321Z,22.08
2022-09-23T07:35:59.030Z,25.58
2022-09-23T07:38:00.933Z,26.08
2022-09-23T07:40:02.743Z,18.90
2022-09-23T07:42:04.625Z,18.48
2022-09-23T07:44:06.404Z,26.15
2022-09-23T07:46:11.195Z,24.48
2022-09-23T07:48:12.965Z,25.65
2022-09-23T07:50:14.687Z,20.05
2022-09-23T07:52:16.458Z,19.88
2022-09-23T07:54:18.722Z,23.15
2022-09-23T07:56:24.274Z,21.90
2022-09-23T07:58:26.289Z,19.77
2022-09-23T08:00:27.996Z,23.90
2022-09-23T08:02:30.085Z,21.08
2022-09-23T08:04:32.784Z,21.38
2022-09-23T08:06:35.166Z,19.67
2022-09-23T08:08:37.444Z,18.77
2022-09-23T08:10:39.169Z,17.48
2022-09-23T08:12:41.064Z,18.38
2022-09-23T08:14:43.132Z,17.90
2022-09-23T08:16:45.977Z,19.73
2022-09-23T08:18:47.887Z,19.80
2022-09-23T08:20:49.763Z,20.05
2022-09-23T08:22:51.447Z,16.38
2022-09-23T08:24:55.735Z,16.83
2022-09-23T08:26:58.761Z,18.48
2022-09-23T08:29:01.467Z,17.30
2022-09-23T08:31:03.543Z,16.08
2022-09-23T08:33:05.376Z,16.17
2022-09-23T08:35:07.389Z,14.75
2022-09-23T08:37:12.985Z,14.07
2022-09-23T08:39:16.347Z,13.55
2022-09-23T08:41:43.844Z,13.98
2022-09-23T08:43:54.812Z,13.10
2022-09-23T08:46:04.245Z,11.80
2022-09-23T08:48:13.318Z,13.35
2022-09-23T08:50:22.087Z,12.45
2022-09-23T08:52:33.271Z,13.98
2022-09-23T08:54:35.008Z,11.57
2022-09-23T08:56:38.486Z,10.55
2022-09-23T08:58:54.145Z,9.70
2022-09-23T09:01:34.792Z,8.50
2022-09-23T09:04:01.807Z,7.85
2022-09-23T09:06:03.998Z,6.85
2022-09-23T09:08:06.044Z,5.63
2022-09-23T09:10:22.025Z,4.20
2022-09-23T09:12:45.199Z,9.85
2022-09-23T09:15:11.666Z,10.90
2022-09-23T09:17:24.384Z,11.18
2022-09-23T09:19:50.103Z,4.80
2022-09-23T09:21:54.013Z,6.05
2022-09-23T09:23:58.238Z,5.13
2022-09-23T09:26:02.165Z,5.35
2022-09-23T09:28:13.648Z,5.68
2022-09-23T09:30:17.310Z,5.03
2022-09-23T09:35:04.078Z,6.25
2022-09-23T09:37:32.499Z,8.13
2022-09-23T09:39:35.239Z,4.07
2022-09-23T09:41:40.443Z,4.45
2022-09-23T09:43:45.440Z,18.33
2022-09-23T09:46:31.333Z,5.72
2022-09-23T09:48:40.214Z,5.50
2022-09-23T09:50:50.024Z,3.15
2022-09-23T09:52:53.278Z,3.65
2022-09-23T09:54:56.845Z,3.45
2022-09-23T09:59:08.372Z,3.22
2022-09-23T10:01:28.901Z,2.72
2022-09-23T10:03:34.926Z,3.70
2022-09-23T10:05:56.918Z,10.60
2022-09-23T10:08:36.655Z,12.32
2022-09-23T10:10:38.370Z,5.70
2022-09-23T10:12:49.612Z,4.22
2022-09-23T10:14:56.755Z,12.15
2022-09-23T10:17:04.388Z,9.95
2022-09-23T10:19:34.499Z,6.53
2022-09-23T10:21:38.457Z,4.07
2022-09-23T10:23:49.840Z,3.25
2022-09-23T10:26:03.456Z,3.30
2022-09-23T10:28:31.280Z,3.65
2022-09-23T10:30:33.008Z,3.58
2022-09-23T10:32:44.753Z,1.55
2022-09-23T10:34:52.339Z,3.03
2022-09-23T10:37:13.894Z,2.90
2022-09-23T10:39:15.754Z,7.18
2022-09-23T10:41:43.631Z,2.20
2022-09-23T10:44:07.975Z,3.13
2022-09-23T10:49:01.404Z,2.95
2022-09-23T10:51:25.985Z,3.33
2022-09-23T10:53:30.903Z,2.55
2022-09-23T10:55:53.821Z,1.88
2022-09-23T10:58:24.925Z,3.03
2022-09-23T11:00:35.819Z,2.05
2022-09-23T11:02:53.892Z,1.92
2022-09-23T11:05:15.767Z,3.38
2022-09-23T11:07:35.046Z,4.00
2022-09-23T11:10:00.030Z,3.63
2022-09-23T11:12:29.669Z,2.13
2022-09-23T11:15:12.921Z,2.15
2022-09-23T11:17:47.791Z,3.55
2022-09-23T11:20:08.705Z,3.58
2022-09-23T11:22:34.500Z,3.70
2022-09-23T11:24:58.175Z,3.50
2022-09-23T11:27:16.675Z,3.78
2022-09-23T11:29:33.595Z,4.07
2022-09-23T11:31:38.318Z,2.97
2022-09-23T11:34:24.425Z,4.65
2022-09-23T11:36:44.549Z,4.18
2022-09-23T11:38:52.350Z,3.08
2022-09-23T11:41:03.983Z,2.65
2022-09-23T11:43:20.978Z,2.90
2022-09-23T11:45:32.250Z,3.05
2022-09-23T11:47:42.079Z,3.05
2022-09-23T11:49:54.374Z,4.65
2022-09-23T11:51:58.878Z,3.38
2022-09-23T11:54:12.415Z,2.70
2022-09-23T11:56:35.371Z,2.70
2022-09-23T11:59:05.516Z,2.63
2022-09-23T12:01:25.294Z,3.17
2022-09-23T12:03:53.444Z,2.53
2022-09-23T12:06:05.136Z,1.85
2022-09-23T12:08:24.393Z,1.75
2022-09-23T12:10:44.415Z,2.00
2022-09-23T12:13:05.205Z,2.38
2022-09-23T12:15:38.941Z,2.03
2022-09-23T12:17:59.445Z,2.90
2022-09-23T12:20:28.759Z,2.08
2022-09-23T12:22:55.115Z,2.42
2022-09-23T12:25:23.587Z,2.42
2022-09-23T12:27:39.544Z,4.15
2022-09-23T12:29:41.629Z,2.88
2022-09-23T12:31:45.346Z,1.73
2022-09-23T12:33:54.328Z,1.27
2022-09-23T12:36:07.033Z,4.15
2022-09-23T12:38:19.505Z,2.45
2022-09-23T12:40:29.256Z,3.88
2022-09-23T12:42:31.546Z,2.30
2022-09-23T12:44:41.682Z,2.60
2022-09-23T12:46:46.724Z,3.92
2022-09-23T12:49:31.745Z,1.92
2022-09-23T12:51:35.138Z,2.00
2022-09-23T12:53:36.821Z,1.88
2022-09-23T12:55:38.517Z,1.92
2022-09-23T12:57:40.985Z,10.63
2022-09-23T12:59:51.865Z,1.77
2022-09-23T13:01:54.192Z,1.48
2022-09-23T13:03:58.600Z,2.63
2022-09-23T13:06:01.947Z,1.58
2022-09-23T13:08:13.651Z,2.63
2022-09-23T13:10:27.231Z,3.00
2022-09-23T13:12:32.549Z,1.92
2022-09-23T13:14:35.409Z,2.92
2022-09-23T13:16:45.179Z,2.05
2022-09-23T13:18:55.027Z,2.22
2022-09-23T13:20:56.732Z,2.00
2022-09-23T13:23:16.891Z,2.85
2022-09-23T13:25:35.233Z,2.33
2022-09-23T13:27:37.177Z,1.95
2022-09-23T13:29:45.248Z,2.65
2022-09-23T13:31:47.575Z,2.60
2022-09-23T13:33:56.694Z,2.00
2022-09-23T13:36:01.650Z,2.55
2022-09-23T13:38:21.973Z,3.03
2022-09-23T13:40:30.515Z,2.50
2022-09-23T13:42:32.745Z,1.55
2022-09-23T13:44:34.621Z,2.28
2022-09-23T13:46:43.471Z,1.65
2022-09-23T13:48:47.485Z,2.33
2022-09-23T13:50:51.746Z,1.63
2022-09-23T13:53:00.900Z,1.65
2022-09-23T13:55:02.619Z,2.03
2022-09-23T13:57:04.569Z,4.05
2022-09-23T13:59:41.264Z,1.80
2022-09-23T14:01:43.344Z,2.80
2022-09-23T14:03:45.030Z,1.50
2022-09-23T14:05:47.576Z,2.28
2022-09-23T14:07:51.479Z,3.40
2022-09-23T14:09:55.775Z,3.72
2022-09-23T14:12:00.079Z,1.92
2022-09-23T14:14:04.058Z,3.97
2022-09-23T14:16:09.855Z,2.15
2022-09-23T14:18:25.697Z,2.75
2022-09-23T14:20:27.392Z,3.22
2022-09-23T14:22:30.500Z,2.60
2022-09-23T14:24:34.501Z,2.72
2022-09-23T14:26:38.092Z,2.85
2022-09-23T14:28:39.906Z,2.78
2022-09-23T14:30:42.214Z,4.65
2022-09-23T14:32:44.488Z,4.90
2022-09-23T14:35:01.717Z,4.30
2022-09-23T14:37:29.004Z,3.22
2022-09-23T14:39:30.759Z,3.75
2022-09-23T14:41:36.699Z,2.97
2022-09-23T14:43:38.394Z,3.60
2022-09-23T14:45:41.600Z,3.75
2022-09-23T14:47:57.914Z,3.85
2022-09-23T14:49:59.883Z,4.50
2022-09-23T14:52:06.129Z,2.75
2022-09-23T14:54:34.607Z,9.88
2022-09-23T14:56:41.778Z,2.85
2022-09-23T14:58:56.969Z,4.47
2022-09-23T15:01:00.972Z,2.58
2022-09-23T15:03:11.663Z,2.25
2022-09-23T15:05:21.868Z,3.35
2022-09-23T15:07:27.191Z,5.22
2022-09-23T15:09:39.718Z,3.95
2022-09-23T15:11:41.673Z,3.30
2022-09-23T15:13:46.787Z,2.88
2022-09-23T15:15:51.351Z,1.80
2022-09-23T15:17:53.654Z,4.80
2022-09-23T15:20:09.051Z,3.08
2022-09-23T15:22:11.102Z,3.63
2022-09-23T15:24:36.074Z,3.55
2022-09-23T15:26:50.068Z,4.07
2022-09-23T15:30:54.480Z,17.52
2022-09-23T15:32:56.260Z,4.22
2022-09-23T15:34:57.962Z,4.28
2022-09-23T15:36:59.713Z,2.92
2022-09-23T15:39:06.855Z,2.90
2022-09-23T15:41:08.619Z,4.47
2022-09-23T15:43:21.104Z,6.30
2022-09-23T15:45:36.494Z,7.50
2022-09-23T15:47:38.255Z,3.70
2022-09-23T15:49:40.103Z,3.78
2022-09-23T15:51:42.134Z,4.57
2022-09-23T15:53:43.824Z,6.65
2022-09-23T15:55:45.715Z,5.43
2022-09-23T15:57:47.591Z,5.50
2022-09-23T15:59:49.372Z,8.18
2022-09-23T16:01:52.769Z,14.18
2022-09-23T16:03:54.842Z,58.55
2022-09-23T16:05:59.031Z,33.63
2022-09-23T16:08:04.881Z,20.00
2022-09-23T16:10:09.815Z,20.30
2022-09-23T16:12:12.339Z,22.75
2022-09-23T16:14:16.371Z,21.23
2022-09-23T16:16:19.140Z,15.65
2022-09-23T16:18:20.876Z,17.90
2022-09-23T16:20:23.760Z,22.27
2022-09-23T16:22:25.887Z,25.25
2022-09-23T16:24:28.406Z,20.05
2022-09-23T16:26:33.337Z,19.02
2022-09-23T16:28:35.198Z,20.73
2022-09-23T16:30:37.111Z,17.73
2022-09-23T16:32:40.227Z,17.13
2022-09-23T16:34:42.069Z,16.52
2022-09-23T16:36:43.843Z,17.23
2022-09-23T16:38:45.744Z,13.48
2022-09-23T16:40:56.054Z,15.95
2022-09-23T16:42:57.836Z,49.47
2022-09-23T16:44:59.742Z,32.75
2022-09-23T16:47:01.625Z,27.05
2022-09-23T16:49:03.848Z,17.35
2022-09-23T16:51:06.290Z,22.02
2022-09-23T16:53:07.987Z,23.63
2022-09-23T16:55:13.590Z,30.02
2022-09-23T16:57:15.335Z,27.88
2022-09-23T16:59:17.067Z,23.67
2022-09-23T17:01:26.913Z,26.77
2022-09-23T17:03:28.764Z,35.10
2022-09-23T17:05:30.644Z,46.95
2022-09-23T17:07:32.380Z,57.03
2022-09-23T17:09:34.085Z,60.28
2022-09-23T17:11:35.924Z,47.88
2022-09-23T17:13:38.077Z,39.33
2022-09-23T17:15:41.227Z,42.55
2022-09-23T17:17:42.967Z,37.35
2022-09-23T17:19:44.714Z,42.53
2022-09-23T17:21:46.545Z,49.05
2022-09-23T17:23:48.373Z,51.97
2022-09-23T17:25:50.081Z,47.28
2022-09-23T17:27:52.397Z,46.10
2022-09-23T17:29:54.270Z,45.47
2022-09-23T17:31:56.226Z,68.35
2022-09-23T17:33:58.424Z,50.30
2022-09-23T17:36:00.343Z,48.45
2022-09-23T17:38:02.155Z,121.88
2022-09-23T17:40:05.040Z,103.35
2022-09-23T17:42:06.889Z,84.25
2022-09-23T17:44:10.614Z,38.72
2022-09-23T17:48:16.147Z,56.38
2022-09-23T17:50:18.148Z,33.55
2022-09-23T17:52:20.005Z,31.85
2022-09-23T17:54:21.907Z,34.92
2022-09-23T17:56:25.780Z,28.20
2022-09-23T17:58:29.728Z,32.53
2022-09-23T18:00:31.587Z,22.48
2022-09-23T18:02:33.366Z,41.17
2022-09-23T18:04:35.194Z,25.15
2022-09-23T18:06:38.199Z,30.15
2022-09-23T18:08:42.062Z,30.17
2022-09-23T18:10:44.318Z,20.85
2022-09-23T18:12:46.102Z,19.20
2022-09-23T18:14:48.712Z,19.13
2022-09-23T18:16:53.227Z,21.77
2022-09-23T18:18:58.363Z,39.67
2022-09-23T18:21:04.518Z,35.00
2022-09-23T18:23:06.488Z,214.18
2022-09-23T18:25:28.502Z,121.22
2022-09-23T18:27:33.357Z,96.30
2022-09-23T18:29:35.305Z,101.00
2022-09-23T18:31:37.877Z,56.28
2022-09-23T18:33:40.385Z,29.20
2022-09-23T18:35:42.253Z,29.08
2022-09-23T18:37:44.168Z,23.95
2022-09-23T18:39:45.843Z,27.20
2022-09-23T18:41:47.822Z,33.20
2022-09-23T18:43:50.448Z,66.00
2022-09-23T18:46:00.156Z,33.05
2022-09-23T18:48:02.462Z,33.72
2022-09-23T18:50:04.572Z,25.23
2022-09-23T18:52:06.282Z,30.00
2022-09-23T18:54:08.239Z,28.48
2022-09-23T18:56:13.448Z,85.90
2022-09-23T18:58:15.157Z,77.43
2022-09-23T19:00:17.020Z,48.70
2022-09-23T19:02:19.839Z,55.55
2022-09-23T19:04:22.540Z,53.53
2022-09-23T19:06:25.127Z,44.83
2022-09-23T19:08:27.443Z,40.40
2022-09-23T19:10:29.139Z,38.10
2022-09-23T19:12:30.989Z,39.20
2022-09-23T19:14:32.783Z,35.85
2022-09-23T19:16:35.640Z,41.33
2022-09-23T19:18:39.576Z,38.13
2022-09-23T19:20:54.582Z,42.30
2022-09-23T19:22:56.327Z,42.85
2022-09-23T19:24:58.119Z,35.95
2022-09-23T19:26:59.981Z,35.17
2022-09-23T19:29:02.478Z,37.38
2022-09-23T19:31:10.601Z,46.95
2022-09-23T19:33:12.366Z,45.47
2022-09-23T19:35:14.491Z,46.65
2022-09-23T19:37:16.407Z,53.20
2022-09-23T19:39:23.140Z,53.22
2022-09-23T19:41:26.518Z,42.85
2022-09-23T19:43:28.384Z,45.92
2022-09-23T19:45:30.096Z,44.85
2022-09-23T19:47:32.157Z,41.00
2022-09-23T19:49:34.028Z,33.22
2022-09-23T19:51:35.832Z,35.20
2022-09-23T19:53:37.662Z,38.83
2022-09-23T19:55:40.438Z,33.15
2022-09-23T19:57:42.184Z,29.70
2022-09-23T19:59:44.130Z,21.67
2022-09-23T20:01:45.951Z,25.45
2022-09-23T20:03:48.064Z,21.48
2022-09-23T20:05:56.909Z,21.23
2022-09-23T20:07:58.795Z,22.45
2022-09-23T20:10:00.500Z,18.80
2022-09-23T20:12:02.479Z,28.88
2022-09-23T20:14:05.010Z,17.77
2022-09-23T20:16:07.874Z,15.55
2022-09-23T20:18:09.865Z,21.40
2022-09-23T20:20:13.443Z,17.77
2022-09-23T20:22:15.162Z,16.50
2022-09-23T20:24:17.021Z,22.58
2022-09-23T20:26:18.849Z,19.83
2022-09-23T20:28:20.699Z,16.30
2022-09-23T20:30:22.574Z,18.67
2022-09-23T20:32:25.047Z,16.00
2022-09-23T20:34:26.877Z,18.52
2022-09-23T20:36:29.731Z,30.77
2022-09-23T20:38:31.619Z,67.90
2022-09-23T20:40:33.398Z,66.90
2022-09-23T20:42:35.529Z,97.75
2022-09-23T20:44:37.403Z,49.13
2022-09-23T20:46:41.965Z,38.50
2022-09-23T20:48:47.139Z,41.65
2022-09-23T20:50:49.603Z,18.65
2022-09-23T20:52:52.442Z,12.18
2022-09-23T20:54:54.372Z,9.77
2022-09-23T20:56:56.153Z,12.23
2022-09-23T20:59:01.830Z,8.25
2022-09-23T21:01:08.401Z,17.30
2022-09-23T21:03:11.455Z,25.60
2022-09-23T21:05:13.290Z,21.83
2022-09-23T21:07:15.034Z,29.23
2022-09-23T21:09:18.056Z,32.75
2022-09-23T21:11:19.860Z,31.15
2022-09-23T21:13:21.699Z,26.17
2022-09-23T21:15:26.041Z,25.27
2022-09-23T21:17:27.779Z,22.50
2022-09-23T21:19:29.464Z,29.80
2022-09-23T21:21:31.243Z,22.67
2022-09-23T21:23:35.684Z,22.33
2022-09-23T21:25:37.433Z,24.45
2022-09-23T21:27:39.261Z,23.63
2022-09-23T21:29:40.996Z,19.35
2022-09-23T21:31:42.902Z,17.27
2022-09-23T21:33:44.770Z,18.40
2022-09-23T21:35:46.481Z,21.80
2022-09-23T21:37:48.403Z,18.33
2022-09-23T21:39:50.266Z,20.50
2022-09-23T21:41:51.971Z,26.52
2022-09-23T21:43:54.513Z,23.95
2022-09-23T21:46:01.484Z,24.10
2022-09-23T21:48:04.742Z,29.30
2022-09-23T21:50:07.222Z,28.27
2022-09-23T21:52:09.178Z,28.75
2022-09-23T21:54:17.154Z,30.23
2022-09-23T21:56:31.102Z,31.27
2022-09-23T21:58:35.128Z,24.85
2022-09-23T22:00:36.870Z,29.15
2022-09-23T22:02:38.691Z,28.08
2022-09-23T22:04:40.575Z,22.13
2022-09-23T22:06:42.418Z,28.67
2022-09-23T22:08:44.148Z,26.08
2022-09-23T22:10:46.158Z,32.33
2022-09-23T22:12:48.450Z,32.20
2022-09-23T22:14:50.307Z,32.22
2022-09-23T22:16:53.868Z,32.63
2022-09-23T22:18:57.642Z,34.35
2022-09-23T22:23:01.896Z,36.97
2022-09-23T22:25:03.761Z,31.08
2022-09-23T22:27:07.798Z,30.35
2022-09-23T22:29:13.093Z,34.88
2022-09-23T22:31:14.827Z,30.42
2022-09-23T22:33:16.679Z,33.58
2022-09-23T22:35:18.937Z,37.97
2022-09-23T22:37:25.228Z,41.47
2022-09-23T22:39:29.276Z,41.67
2022-09-23T22:41:31.509Z,43.70
2022-09-23T22:43:33.261Z,40.85
2022-09-23T22:45:35.062Z,38.28
2022-09-23T22:47:39.779Z,31.90
2022-09-23T22:49:41.463Z,29.85
2022-09-23T22:51:43.238Z,32.78
2022-09-23T22:53:44.977Z,30.73
2022-09-23T22:55:57.430Z,32.83
2022-09-23T22:58:10.410Z,33.72
2022-09-23T23:00:21.083Z,34.25
2022-09-23T23:02:22.782Z,30.58
2022-09-23T23:04:24.484Z,34.08
2022-09-23T23:06:26.389Z,33.40
2022-09-23T23:08:29.350Z,33.95
2022-09-23T23:10:31.308Z,34.00
2022-09-23T23:12:33.341Z,34.05
2022-09-23T23:14:37.923Z,32.65
2022-09-23T23:16:40.698Z,38.85
2022-09-23T23:18:43.668Z,38.67
2022-09-23T23:20:45.517Z,51.83
2022-09-23T23:22:47.404Z,51.63
2022-09-23T23:24:50.302Z,57.75
2022-09-23T23:26:52.670Z,63.65
2022-09-23T23:28:55.318Z,52.95
2022-09-23T23:31:03.476Z,58.22
2022-09-23T23:33:05.598Z,70.90
2022-09-23T23:35:08.014Z,55.53
2022-09-23T23:37:09.947Z,55.65
2022-09-23T23:39:13.823Z,63.97
2022-09-23T23:43:19.906Z,70.22
2022-09-23T23:45:22.013Z,53.45
2022-09-23T23:47:24.143Z,49.15
2022-09-23T23:49:26.749Z,49.63
2022-09-23T23:51:30.254Z,48.55
2022-09-23T23:53:35.621Z,45.80
2022-09-23T23:55:39.004Z,48.83
2022-09-23T23:57:42.830Z,48.47
2022-09-23T23:59:44.605Z,44.85
